createdAt,value
2023-04-01T06:38:34.724Z,92.90
2023-04-01T06:45:59.500Z,93.70
2023-04-01T06:49:00.756Z,93.10
2023-04-01T06:52:32.205Z,93.30
2023-04-01T06:55:47.133Z,92.80
2023-04-01T06:58:36.109Z,93.20
2023-04-01T07:01:19.217Z,92.50
2023-04-01T07:04:02.082Z,93.00
2023-04-01T07:07:17.261Z,92.60
2023-04-01T07:10:00.316Z,92.40
2023-04-01T07:12:59.743Z,92.20
2023-04-01T07:15:40.664Z,91.90
2023-04-01T07:18:29.557Z,92.00
2023-04-01T07:20:57.830Z,91.40
2023-04-01T07:23:37.436Z,91.80
2023-04-01T07:26:26.004Z,91.80
2023-04-01T07:28:55.231Z,91.90
2023-04-01T07:32:04.379Z,91.30
2023-04-01T07:34:49.778Z,91.50
2023-04-01T07:37:43.531Z,91.50
2023-04-01T07:41:09.224Z,91.00
2023-04-01T07:44:17.146Z,91.60
2023-04-01T07:47:35.378Z,91.10
2023-04-01T07:50:39.284Z,90.90
2023-04-01T07:53:39.259Z,91.10
2023-04-01T07:57:17.544Z,90.70
2023-04-01T08:00:16.796Z,91.70
2023-04-01T08:03:40.412Z,91.80
2023-04-01T08:06:47.573Z,91.50
2023-04-01T08:09:56.444Z,91.60
2023-04-01T08:13:04.938Z,91.30
2023-04-01T08:16:25.621Z,91.00
2023-04-01T08:20:01.673Z,90.50
2023-04-01T08:22:44.025Z,90.70
2023-04-01T08:25:26.018Z,90.80
2023-04-01T08:28:08.393Z,90.10
2023-04-01T08:31:07.136Z,90.30
2023-04-01T08:33:35.180Z,90.40
2023-04-01T08:36:20.228Z,89.80
2023-04-01T08:39:11.815Z,90.20
2023-04-01T08:42:07.056Z,90.00
2023-04-01T08:45:47.359Z,90.00
2023-04-01T08:49:13.967Z,89.90
2023-04-01T08:52:35.098Z,87.80
2023-04-01T08:55:33.555Z,89.60
2023-04-01T08:58:39.037Z,89.10
2023-04-01T09:02:24.572Z,88.20
2023-04-01T09:06:23.030Z,88.20
2023-04-01T09:09:30.946Z,87.90
2023-04-01T09:13:11.764Z,87.40
2023-04-01T09:16:22.249Z,87.40
2023-04-01T09:19:44.126Z,86.60
2023-04-01T09:22:59.124Z,87.20
2023-04-01T09:26:27.899Z,86.50
2023-04-01T09:30:06.820Z,86.20
2023-04-01T09:33:59.665Z,88.20
2023-04-01T09:37:28.641Z,89.00
2023-04-01T09:40:55.499Z,90.00
2023-04-01T09:44:02.630Z,89.00
2023-04-01T09:46:59.060Z,90.00
2023-04-01T09:50:32.814Z,90.40
2023-04-01T09:53:29.455Z,91.50
2023-04-01T09:56:46.609Z,91.90
2023-04-01T09:59:58.204Z,91.60
2023-04-01T10:03:14.366Z,91.80
2023-04-01T10:06:46.880Z,91.20
2023-04-01T10:10:21.527Z,90.90
2023-04-01T10:13:31.492Z,90.70
2023-04-01T10:16:53.679Z,90.70
2023-04-01T10:20:27.724Z,89.80
2023-04-01T10:24:00.777Z,90.30
2023-04-01T10:27:35.496Z,88.80
2023-04-01T10:31:02.142Z,88.00
2023-04-01T10:34:01.346Z,87.10
2023-04-01T10:37:11.823Z,87.90
2023-04-01T10:40:27.572Z,87.60
2023-04-01T10:43:53.084Z,86.70
2023-04-01T10:47:15.042Z,87.10
2023-04-01T10:50:42.811Z,87.70
2023-04-01T10:54:12.464Z,90.50
2023-04-01T10:57:55.512Z,89.70
2023-04-01T11:01:21.877Z,90.40
2023-04-01T11:04:49.860Z,90.70
2023-04-01T11:08:57.405Z,91.40
2023-04-01T11:12:04.865Z,92.00
2023-04-01T11:14:43.974Z,92.10
2023-04-01T11:18:19.087Z,91.60
2023-04-01T11:22:12.206Z,90.50
2023-04-01T11:25:29.445Z,90.20
2023-04-01T11:28:55.553Z,90.20
2023-04-01T11:32:28.726Z,90.00
2023-04-01T11:36:11.112Z,89.80
2023-04-01T11:39:26.253Z,88.70
2023-04-01T11:43:08.551Z,88.70
2023-04-01T11:46:44.805Z,87.20
2023-04-01T11:50:01.249Z,87.10
2023-04-01T11:52:57.709Z,85.80
2023-04-01T11:56:33.733Z,84.40
2023-04-01T11:59:33.839Z,84.00
2023-04-01T12:03:25.648Z,82.60
2023-04-01T12:06:27.182Z,82.80
2023-04-01T12:09:59.413Z,81.30
2023-04-01T12:13:08.741Z,80.00
2023-04-01T12:16:41.161Z,79.80
2023-04-01T12:19:49.703Z,79.80
2023-04-01T12:23:15.516Z,79.40
2023-04-01T12:26:42.217Z,80.10
2023-04-01T12:29:49.401Z,80.70
2023-04-01T12:33:43.780Z,82.50
2023-04-01T12:37:00.120Z,82.50
2023-04-01T12:40:27.361Z,83.30
2023-04-01T12:43:57.792Z,81.10
2023-04-01T12:47:20.119Z,82.00
2023-04-01T12:50:52.752Z,83.60
2023-04-01T12:53:57.457Z,83.10
2023-04-01T12:56:44.366Z,82.70
2023-04-01T13:00:01.532Z,81.00
2023-04-01T13:03:16.665Z,80.70
2023-04-01T13:06:29.534Z,82.00
2023-04-01T13:09:40.853Z,84.70
2023-04-01T13:13:01.745Z,87.50
2023-04-01T13:15:51.439Z,90.10
2023-04-01T13:18:58.113Z,90.60
2023-04-01T13:22:01.266Z,91.00
2023-04-01T13:25:19.501Z,90.60
2023-04-01T13:28:19.147Z,90.30
2023-04-01T13:31:06.984Z,86.40
2023-04-01T13:34:17.948Z,87.00
2023-04-01T13:37:28.564Z,86.20
2023-04-01T13:40:23.665Z,84.60
2023-04-01T13:43:38.585Z,83.60
2023-04-01T13:47:08.004Z,84.10
2023-04-01T13:51:01.674Z,84.20
2023-04-01T13:54:42.768Z,85.40
2023-04-01T13:58:00.833Z,83.20
2023-04-01T14:01:27.586Z,81.90
2023-04-01T14:05:10.642Z,81.00
2023-04-01T14:08:18.565Z,81.50
2023-04-01T14:11:18.585Z,80.40
2023-04-01T14:14:57.087Z,79.60
2023-04-01T14:17:55.624Z,81.10
2023-04-01T14:21:38.766Z,79.90
2023-04-01T14:24:53.852Z,79.20
2023-04-01T14:28:04.519Z,79.10
2023-04-01T14:31:08.269Z,79.30
2023-04-01T14:34:22.749Z,80.00
2023-04-01T14:37:17.931Z,79.80
2023-04-01T14:40:52.056Z,75.30
2023-04-01T14:43:57.395Z,74.40
2023-04-01T14:46:54.226Z,76.80
2023-04-01T14:49:47.904Z,79.10
2023-04-01T14:52:40.062Z,78.70
2023-04-01T14:55:44.003Z,78.30
2023-04-01T14:58:21.087Z,78.80
2023-04-01T15:01:18.444Z,77.30
2023-04-01T15:04:38.856Z,78.20
2023-04-01T15:08:03.166Z,78.00
2023-04-01T15:11:34.347Z,77.60
2023-04-01T15:14:59.978Z,76.70
2023-04-01T15:18:19.066Z,75.50
2023-04-01T15:21:34.995Z,74.50
2023-04-01T15:24:49.540Z,73.00
2023-04-01T15:28:00.493Z,73.70
2023-04-01T15:30:41.842Z,74.30
2023-04-01T15:33:48.847Z,75.70
2023-04-01T15:37:27.254Z,74.50
2023-04-01T15:40:17.039Z,74.80
2023-04-01T15:43:49.909Z,75.70
2023-04-01T15:46:49.699Z,75.90
2023-04-01T15:49:42.623Z,75.90
2023-04-01T15:52:36.896Z,74.60
2023-04-01T15:55:47.712Z,72.80
2023-04-01T15:58:27.638Z,70.90
2023-04-01T16:01:56.338Z,70.30
2023-04-01T16:04:56.866Z,69.40
2023-04-01T16:09:05.177Z,68.20
2023-04-01T16:12:05.818Z,69.20
2023-04-01T16:15:09.591Z,68.50
2023-04-01T16:18:07.585Z,69.10
2023-04-01T16:21:06.356Z,70.70
2023-04-01T16:24:06.391Z,71.10
2023-04-01T16:27:23.070Z,72.90
2023-04-01T16:30:35.919Z,72.50
2023-04-01T16:34:20.443Z,73.00
2023-04-01T16:37:18.216Z,73.70
2023-04-01T16:40:21.370Z,73.40
2023-04-01T16:43:12.728Z,72.90
2023-04-01T16:45:49.537Z,72.70
2023-04-01T16:48:37.684Z,71.90
2023-04-01T16:51:17.324Z,72.00
2023-04-01T16:54:22.578Z,71.40
2023-04-01T16:57:09.800Z,71.40
2023-04-01T17:00:17.409Z,71.70
2023-04-01T17:03:09.417Z,71.50
2023-04-01T17:06:32.536Z,70.20
2023-04-01T17:10:11.851Z,70.80
2023-04-01T17:13:31.739Z,69.90
2023-04-01T17:16:37.298Z,71.40
2023-04-01T17:20:03.758Z,70.80
2023-04-01T17:23:04.112Z,71.80
2023-04-01T17:26:39.586Z,70.80
2023-04-01T17:29:28.582Z,70.70
2023-04-01T17:32:29.023Z,70.50
2023-04-01T17:35:28.152Z,71.80
2023-04-01T17:39:14.525Z,71.40
2023-04-01T17:42:06.590Z,72.70
2023-04-01T17:45:39.081Z,72.40
2023-04-01T17:49:17.213Z,72.00
2023-04-01T17:52:12.880Z,73.10
2023-04-01T17:54:59.131Z,73.70
2023-04-01T17:58:03.618Z,74.70
2023-04-01T18:01:15.703Z,75.70
2023-04-01T18:04:27.245Z,76.80
2023-04-01T18:07:20.552Z,76.60
2023-04-01T18:11:00.850Z,77.70
2023-04-01T18:13:56.159Z,77.80
2023-04-01T18:17:36.198Z,77.50
2023-04-01T18:21:35.922Z,74.10
2023-04-01T18:24:43.500Z,77.50
2023-04-01T18:27:34.709Z,77.60
2023-04-01T18:30:33.191Z,78.00
2023-04-01T18:33:44.819Z,78.50
2023-04-01T18:37:52.190Z,79.70
2023-04-01T18:41:14.884Z,80.40
2023-04-01T18:44:41.065Z,82.30
2023-04-01T18:48:14.549Z,83.10
2023-04-01T18:51:05.589Z,84.50
2023-04-01T18:53:35.770Z,84.10
2023-04-01T18:56:26.416Z,82.90
2023-04-01T18:59:29.833Z,81.40
2023-04-01T19:03:08.095Z,79.60
2023-04-01T19:05:48.721Z,81.00
2023-04-01T19:08:21.248Z,80.70
2023-04-01T19:11:51.340Z,79.30
2023-04-01T19:14:54.608Z,79.20
2023-04-01T19:18:08.211Z,79.30
2023-04-01T19:21:34.711Z,80.20
2023-04-01T19:25:05.158Z,79.30
2023-04-01T19:28:31.797Z,78.50
2023-04-01T19:31:28.867Z,78.10
2023-04-01T19:34:41.461Z,78.30
2023-04-01T19:37:53.070Z,77.60
2023-04-01T19:41:06.413Z,77.90
2023-04-01T19:44:26.731Z,78.30
2023-04-01T19:47:46.887Z,78.60
2023-04-01T19:50:39.593Z,79.10
2023-04-01T19:54:05.471Z,79.70
2023-04-01T19:57:00.303Z,80.50
2023-04-01T20:00:16.230Z,81.00
2023-04-01T20:03:51.090Z,80.50
2023-04-01T20:07:37.945Z,80.60
2023-04-01T20:10:20.951Z,80.60
2023-04-01T20:13:18.835Z,81.40
2023-04-01T20:16:09.705Z,80.60
2023-04-01T20:19:01.910Z,80.50
2023-04-01T20:21:47.449Z,81.20
2023-04-01T20:24:48.049Z,82.10
2023-04-01T20:27:48.020Z,82.10
2023-04-01T20:31:12.454Z,82.00
2023-04-01T20:34:33.998Z,82.50
2023-04-01T20:37:43.546Z,83.20
2023-04-01T20:40:35.049Z,82.40
2023-04-01T20:43:35.491Z,82.20
2023-04-01T20:47:23.122Z,81.60
2023-04-01T20:50:55.750Z,82.00
2023-04-01T20:54:11.659Z,82.00
2023-04-01T20:57:45.122Z,81.80
2023-04-01T21:00:52.660Z,81.60
2023-04-01T21:03:50.572Z,81.40
2023-04-01T21:07:11.210Z,80.80
2023-04-01T21:10:12.472Z,81.70
2023-04-01T21:13:17.939Z,83.20
2023-04-01T21:16:41.118Z,82.70
2023-04-01T21:19:43.821Z,82.20
2023-04-01T21:23:21.399Z,82.70
2023-04-01T21:26:55.509Z,82.50
2023-04-01T21:30:36.800Z,83.80
2023-04-01T21:33:54.115Z,85.40
2023-04-01T21:37:25.393Z,85.70
2023-04-01T21:40:40.664Z,87.60
2023-04-01T21:44:17.447Z,87.50
2023-04-01T21:47:51.965Z,87.00
2023-04-01T21:50:55.455Z,87.80
2023-04-01T21:54:05.123Z,87.60
2023-04-01T21:57:49.110Z,86.80
2023-04-01T22:00:32.804Z,86.30
2023-04-01T22:04:14.533Z,86.80
2023-04-01T22:07:21.198Z,86.90
2023-04-01T22:10:22.871Z,87.20
2023-04-01T22:13:35.179Z,86.60
2023-04-01T22:16:53.518Z,87.00
2023-04-01T22:20:04.763Z,86.60
2023-04-01T22:23:30.066Z,86.50
2023-04-01T22:26:28.017Z,87.00
2023-04-01T22:29:42.990Z,86.50
2023-04-01T22:32:43.997Z,86.90
2023-04-01T22:36:01.910Z,86.10
2023-04-01T22:39:12.025Z,86.80
2023-04-01T22:42:45.076Z,86.90
2023-04-01T22:45:35.497Z,87.20
